createdAt,value
2018-05-10T00:00:32.737Z,0
2018-05-10T00:01:42.747Z,0
2018-05-10T00:02:52.229Z,0
2018-05-10T00:04:01.716Z,0
2018-05-10T00:05:10.928Z,0
2018-05-10T00:06:20.946Z,0
2018-05-10T00:07:30.687Z,0
2018-05-10T00:08:40.701Z,0
2018-05-10T00:09:50.714Z,0
2018-05-10T00:11:00.718Z,0
2018-05-10T00:12:10.463Z,0
2018-05-10T00:13:20.204Z,0
2018-05-10T00:14:30.220Z,0
2018-05-10T00:15:39.971Z,0
2018-05-10T00:16:49.979Z,0
2018-05-10T00:17:59.993Z,0
2018-05-10T00:19:09.199Z,0
2018-05-10T00:20:19.228Z,0
2018-05-10T00:21:29.244Z,0
2018-05-10T00:22:38.720Z,0
2018-05-10T00:23:48.729Z,0
2018-05-10T00:24:58.471Z,0
2018-05-10T00:26:07.679Z,0
2018-05-10T00:27:17.417Z,0
2018-05-10T00:28:26.627Z,0
2018-05-10T00:29:36.387Z,0
2018-05-10T00:30:46.131Z,0
2018-05-10T00:31:55.611Z,0
2018-05-10T00:33:05.621Z,0
2018-05-10T00:34:15.637Z,0
2018-05-10T00:35:25.398Z,0
2018-05-10T00:36:35.406Z,0
2018-05-10T00:37:45.418Z,0
2018-05-10T00:38:55.442Z,0
2018-05-10T00:40:05.184Z,0
2018-05-10T00:41:14.400Z,0
2018-05-10T00:42:24.411Z,0
2018-05-10T00:43:34.437Z,0
2018-05-10T00:44:44.458Z,0
2018-05-10T00:45:54.478Z,0
2018-05-10T00:47:04.487Z,0
2018-05-10T00:48:14.244Z,0
2018-05-10T00:49:23.998Z,0
2018-05-10T00:50:34.014Z,0
2018-05-10T00:51:43.496Z,0
2018-05-10T00:52:53.503Z,0
2018-05-10T00:54:02.979Z,0
2018-05-10T00:55:12.192Z,0
2018-05-10T00:56:22.208Z,0
2018-05-10T00:57:31.416Z,0
2018-05-10T00:58:41.437Z,0
2018-05-10T00:59:51.199Z,0
2018-05-10T01:01:00.683Z,0
2018-05-10T01:02:10.435Z,0
2018-05-10T01:03:20.196Z,0
2018-05-10T01:04:29.952Z,0
2018-05-10T01:05:39.694Z,0
2018-05-10T01:06:48.900Z,0
2018-05-10T01:07:58.650Z,0
2018-05-10T01:09:08.125Z,0
2018-05-10T01:10:18.143Z,0
2018-05-10T01:11:28.163Z,0
2018-05-10T01:12:38.184Z,0
2018-05-10T01:13:48.201Z,0
2018-05-10T01:14:57.941Z,0
2018-05-10T01:16:07.695Z,0
2018-05-10T01:17:17.718Z,0
2018-05-10T01:18:27.731Z,0
2018-05-10T01:19:37.473Z,0
2018-05-10T01:20:47.217Z,0
2018-05-10T01:21:57.228Z,0
2018-05-10T01:23:07.241Z,0
2018-05-10T01:24:16.991Z,0
2018-05-10T01:25:26.471Z,0
2018-05-10T01:26:36.487Z,0
2018-05-10T01:27:46.232Z,0
2018-05-10T01:28:55.975Z,0
2018-05-10T01:30:05.734Z,0
2018-05-10T01:31:15.212Z,0
2018-05-10T01:32:24.694Z,0
2018-05-10T01:33:34.813Z,0
2018-05-10T01:34:44.823Z,0
2018-05-10T01:35:54.625Z,0
2018-05-10T01:37:04.716Z,0
2018-05-10T01:38:14.464Z,0
2018-05-10T01:39:24.470Z,0
2018-05-10T01:40:34.221Z,0
2018-05-10T01:41:44.228Z,0
2018-05-10T01:42:53.976Z,0
2018-05-10T01:44:03.724Z,0
2018-05-10T01:45:13.466Z,0
2018-05-10T01:46:23.215Z,0
2018-05-10T01:47:33.240Z,0
2018-05-10T01:48:43.258Z,0
2018-05-10T01:49:53.007Z,0
2018-05-10T01:51:02.758Z,0
2018-05-10T01:52:12.508Z,0
2018-05-10T01:53:22.251Z,0
2018-05-10T01:54:31.991Z,0
2018-05-10T01:55:42.008Z,0
2018-05-10T01:56:51.752Z,0
2018-05-10T01:58:01.576Z,0
2018-05-10T01:59:11.604Z,0
2018-05-10T02:00:21.620Z,0
2018-05-10T02:01:31.098Z,0
2018-05-10T02:02:40.673Z,0
2018-05-10T02:03:50.155Z,0
2018-05-10T02:04:59.906Z,0
2018-05-10T02:06:09.926Z,0
2018-05-10T02:07:19.943Z,0
2018-05-10T02:08:29.969Z,0
2018-05-10T02:09:39.715Z,0
2018-05-10T02:10:49.193Z,0
2018-05-10T02:11:59.207Z,0
2018-05-10T02:13:09.272Z,0
2018-05-10T02:14:19.036Z,0
2018-05-10T02:15:28.782Z,0
2018-05-10T02:16:38.813Z,0
2018-05-10T02:17:48.555Z,0
2018-05-10T02:18:58.295Z,0
2018-05-10T02:20:08.040Z,0
2018-05-10T02:21:18.052Z,0
2018-05-10T02:22:28.076Z,0
2018-05-10T02:23:38.086Z,0
2018-05-10T02:24:48.098Z,0
2018-05-10T02:25:58.109Z,0
2018-05-10T02:27:07.582Z,0
2018-05-10T02:28:17.346Z,0
2018-05-10T02:29:27.359Z,0
2018-05-10T02:30:37.110Z,0
2018-05-10T02:31:47.429Z,0
2018-05-10T02:32:57.454Z,0
2018-05-10T02:34:07.214Z,0
2018-05-10T02:35:16.971Z,5
2018-05-10T02:36:26.951Z,5
2018-05-10T02:37:36.070Z,5
2018-05-10T02:38:45.826Z,5
2018-05-10T02:39:55.583Z,5
2018-05-10T02:41:05.591Z,5
2018-05-10T02:42:15.623Z,5
2018-05-10T02:43:25.656Z,5
2018-05-10T02:44:35.422Z,5
2018-05-10T02:45:45.457Z,5
2018-05-10T02:46:55.486Z,10
2018-05-10T02:48:04.699Z,10
2018-05-10T02:49:14.184Z,10
2018-05-10T02:50:23.932Z,10
2018-05-10T02:51:33.953Z,10
2018-05-10T02:52:42.894Z,10
2018-05-10T02:53:52.911Z,10
2018-05-10T02:55:02.679Z,10
2018-05-10T02:56:12.455Z,15
2018-05-10T02:57:22.471Z,15
2018-05-10T02:58:32.492Z,15
2018-05-10T02:59:42.505Z,15
2018-05-10T03:03:35.217Z,20
2018-05-10T03:04:45.229Z,20
2018-05-10T03:05:54.705Z,20
2018-05-10T03:07:04.737Z,25
2018-05-10T03:08:14.832Z,25
2018-05-10T03:09:24.846Z,25
2018-05-10T03:10:34.595Z,25
2018-05-10T03:11:44.632Z,25
2018-05-10T03:12:54.377Z,25
2018-05-10T03:14:04.393Z,30
2018-05-10T03:15:14.138Z,30
2018-05-10T03:16:23.885Z,30
2018-05-10T03:17:33.721Z,30
2018-05-10T03:18:43.732Z,35
2018-05-10T03:19:53.747Z,35
2018-05-10T03:21:03.821Z,35
2018-05-10T03:22:13.571Z,35
2018-05-10T03:23:23.319Z,35
2018-05-10T03:24:33.335Z,40
2018-05-10T03:25:43.352Z,40
2018-05-10T03:26:53.362Z,40
2018-05-10T03:28:03.109Z,45
2018-05-10T03:29:13.120Z,45
2018-05-10T03:30:23.185Z,45
2018-05-10T03:31:33.215Z,45
2018-05-10T03:32:42.688Z,50
2018-05-10T03:33:52.429Z,50
2018-05-10T03:35:02.448Z,50
2018-05-10T03:36:11.932Z,55
2018-05-10T03:37:21.678Z,55
2018-05-10T03:38:31.153Z,55
2018-05-10T03:39:40.629Z,55
2018-05-10T03:40:50.452Z,60
2018-05-10T03:42:00.464Z,60
2018-05-10T03:43:10.487Z,60
2018-05-10T03:44:20.503Z,60
2018-05-10T03:45:30.523Z,60
2018-05-10T03:46:40.269Z,65
2018-05-10T03:47:50.276Z,65
2018-05-10T03:49:00.016Z,70
2018-05-10T03:50:09.224Z,70
2018-05-10T03:51:19.245Z,75
2018-05-10T03:52:28.721Z,75
2018-05-10T03:53:38.731Z,75
2018-05-10T03:54:48.744Z,80
2018-05-10T03:55:58.492Z,80
2018-05-10T03:57:08.243Z,85
2018-05-10T03:58:17.992Z,85
2018-05-10T03:59:27.739Z,85
2018-05-10T04:00:37.481Z,85
2018-05-10T04:01:47.511Z,90
2018-05-10T04:02:57.261Z,90
2018-05-10T04:04:07.276Z,85
2018-05-10T04:05:17.018Z,85
2018-05-10T04:06:27.031Z,90
2018-05-10T04:07:36.781Z,90
2018-05-10T04:08:46.525Z,95
2018-05-10T04:09:56.290Z,95
2018-05-10T04:11:06.309Z,100
2018-05-10T04:12:16.320Z,105
2018-05-10T04:13:26.331Z,110
2018-05-10T04:14:35.809Z,105
2018-05-10T04:15:45.730Z,105
2018-05-10T04:16:55.469Z,110
2018-05-10T04:18:05.212Z,105
2018-05-10T04:19:14.777Z,105
2018-05-10T04:20:24.787Z,110
2018-05-10T04:21:34.531Z,115
2018-05-10T04:22:44.550Z,115
2018-05-10T04:23:54.560Z,115
2018-05-10T04:25:04.310Z,115
2018-05-10T04:26:13.791Z,115
2018-05-10T04:27:23.269Z,115
2018-05-10T04:28:33.282Z,115
2018-05-10T04:29:43.287Z,115
2018-05-10T04:30:53.302Z,110
2018-05-10T04:32:03.074Z,115
2018-05-10T04:33:12.823Z,120
2018-05-10T04:34:22.570Z,120
2018-05-10T04:35:32.584Z,120
2018-05-10T04:36:42.597Z,120
2018-05-10T04:37:52.074Z,125
2018-05-10T04:39:01.819Z,125
2018-05-10T04:40:11.561Z,115
2018-05-10T04:41:21.581Z,125
2018-05-10T04:42:31.772Z,125
2018-05-10T04:43:41.786Z,120
2018-05-10T04:44:51.532Z,115
2018-05-10T04:46:01.538Z,130
2018-05-10T04:47:11.284Z,130
2018-05-10T04:48:21.297Z,120
2018-05-10T04:49:31.043Z,125
2018-05-10T04:50:40.789Z,135
2018-05-10T04:51:50.274Z,135
2018-05-10T04:53:00.015Z,120
2018-05-10T04:54:09.760Z,135
2018-05-10T04:55:19.777Z,140
2018-05-10T04:56:29.796Z,120
2018-05-10T04:57:39.555Z,125
2018-05-10T04:58:49.300Z,140
2018-05-10T04:59:59.309Z,140
2018-05-10T05:01:09.322Z,125
2018-05-10T05:02:18.802Z,140
2018-05-10T05:03:28.761Z,145
2018-05-10T05:04:38.493Z,145
2018-05-10T05:05:48.603Z,125
2018-05-10T05:06:58.623Z,145
2018-05-10T05:08:08.394Z,145
2018-05-10T05:09:18.142Z,145
2018-05-10T05:10:28.166Z,145
2018-05-10T05:11:38.180Z,145
2018-05-10T05:12:47.926Z,145
2018-05-10T05:13:57.946Z,150
2018-05-10T05:15:07.697Z,150
2018-05-10T05:16:16.917Z,150
2018-05-10T05:17:26.941Z,155
2018-05-10T05:18:36.680Z,150
2018-05-10T05:19:46.690Z,150
2018-05-10T05:20:55.900Z,150
2018-05-10T05:22:05.910Z,150
2018-05-10T05:23:16.021Z,150
2018-05-10T05:24:26.044Z,155
2018-05-10T05:25:35.792Z,150
2018-05-10T05:26:45.556Z,150
2018-05-10T05:27:55.022Z,150
2018-05-10T05:29:04.777Z,155
2018-05-10T05:30:14.790Z,155
2018-05-10T05:31:24.803Z,155
2018-05-10T05:32:34.821Z,155
2018-05-10T05:33:44.851Z,155
2018-05-10T05:34:54.863Z,150
2018-05-10T05:36:04.872Z,155
2018-05-10T05:37:14.624Z,155
2018-05-10T05:38:24.369Z,155
2018-05-10T05:39:34.157Z,155
2018-05-10T05:40:44.323Z,155
2018-05-10T05:41:54.329Z,155
2018-05-10T05:43:03.808Z,155
2018-05-10T05:44:13.552Z,155
2018-05-10T05:45:23.570Z,155
2018-05-10T05:46:33.319Z,160
2018-05-10T05:47:43.330Z,160
2018-05-10T05:48:53.343Z,160
2018-05-10T05:50:02.823Z,160
2018-05-10T05:51:12.996Z,160
2018-05-10T05:52:23.026Z,160
2018-05-10T05:53:33.044Z,160
2018-05-10T05:54:43.066Z,160
2018-05-10T05:55:53.091Z,160
2018-05-10T05:57:02.841Z,160
2018-05-10T05:58:12.582Z,160
2018-05-10T05:59:22.594Z,160
2018-05-10T06:00:32.625Z,165
2018-05-10T06:01:42.373Z,165
2018-05-10T06:02:52.124Z,165
2018-05-10T06:04:01.868Z,165
2018-05-10T06:05:11.628Z,165
2018-05-10T06:06:21.103Z,165
2018-05-10T06:07:30.577Z,165
2018-05-10T06:08:40.830Z,165
2018-05-10T06:09:50.934Z,165
2018-05-10T06:11:00.418Z,165
2018-05-10T06:12:10.159Z,165
2018-05-10T06:13:19.904Z,165
2018-05-10T06:14:29.915Z,170
2018-05-10T06:15:40.354Z,170
2018-05-10T06:16:50.379Z,170
2018-05-10T06:18:00.396Z,170
2018-05-10T06:19:09.871Z,170
2018-05-10T06:20:19.882Z,170
2018-05-10T06:21:29.903Z,170
2018-05-10T06:22:39.936Z,170
2018-05-10T06:23:49.947Z,170
2018-05-10T06:25:00.554Z,170
2018-05-10T06:26:10.323Z,175
2018-05-10T06:27:20.350Z,170
2018-05-10T06:28:30.093Z,170
2018-05-10T06:29:40.101Z,170
2018-05-10T06:30:50.110Z,175
2018-05-10T06:32:00.125Z,175
2018-05-10T06:33:10.152Z,175
2018-05-10T06:34:19.627Z,175
2018-05-10T06:35:29.642Z,175
2018-05-10T06:36:39.653Z,175
2018-05-10T06:37:49.670Z,175
2018-05-10T06:38:59.151Z,175
2018-05-10T06:40:08.898Z,175
2018-05-10T06:41:18.648Z,175
2018-05-10T06:42:28.391Z,175
2018-05-10T06:43:37.866Z,180
2018-05-10T06:44:47.885Z,180
2018-05-10T06:45:57.373Z,180
2018-05-10T06:47:07.579Z,180
2018-05-10T06:48:17.064Z,180
2018-05-10T06:49:26.544Z,180
2018-05-10T06:50:36.043Z,180
2018-05-10T06:51:45.790Z,180
2018-05-10T06:52:55.537Z,180
2018-05-10T06:54:05.554Z,180
2018-05-10T06:55:15.568Z,180
2018-05-10T06:56:25.595Z,180
2018-05-10T06:57:35.355Z,180
2018-05-10T06:58:45.100Z,185
2018-05-10T06:59:55.122Z,185
2018-05-10T07:01:04.611Z,185
2018-05-10T07:02:14.630Z,185
2018-05-10T07:03:24.353Z,185
2018-05-10T07:04:34.186Z,185
2018-05-10T07:05:43.936Z,185
2018-05-10T07:06:53.681Z,185
2018-05-10T07:08:03.691Z,185
2018-05-10T07:09:13.434Z,185
2018-05-10T07:10:23.454Z,185
2018-05-10T07:11:33.468Z,185
2018-05-10T07:12:43.227Z,185
2018-05-10T07:13:52.788Z,185
2018-05-10T07:15:02.804Z,185
2018-05-10T07:16:12.288Z,185
2018-05-10T07:17:22.301Z,185
2018-05-10T07:18:32.316Z,185
2018-05-10T07:19:42.059Z,185
2018-05-10T07:20:51.819Z,185
2018-05-10T07:22:01.849Z,185
2018-05-10T07:23:11.605Z,185
2018-05-10T07:24:21.085Z,185
2018-05-10T07:25:31.091Z,190
2018-05-10T07:26:41.110Z,190
2018-05-10T07:27:50.587Z,190
2018-05-10T07:29:00.332Z,190
2018-05-10T07:30:10.080Z,190
2018-05-10T07:31:19.877Z,190
2018-05-10T07:32:29.910Z,190
2018-05-10T07:33:39.930Z,190
2018-05-10T07:34:49.672Z,195
2018-05-10T07:35:59.422Z,195
2018-05-10T07:37:09.168Z,195
2018-05-10T07:38:18.935Z,195
2018-05-10T07:39:28.970Z,195
2018-05-10T07:40:39.064Z,195
2018-05-10T07:41:48.810Z,195
2018-05-10T07:42:58.924Z,195
2018-05-10T07:44:08.936Z,195
2018-05-10T07:45:18.419Z,195
2018-05-10T07:46:28.431Z,200
2018-05-10T07:47:38.300Z,200
2018-05-10T07:48:47.778Z,200
2018-05-10T07:49:57.528Z,200
2018-05-10T07:51:07.540Z,200
2018-05-10T07:52:17.565Z,200
2018-05-10T07:53:27.286Z,200
2018-05-10T07:54:37.343Z,200
2018-05-10T07:55:47.099Z,200
2018-05-10T07:56:57.125Z,200
2018-05-10T07:58:06.874Z,200
2018-05-10T07:59:16.619Z,200
2018-05-10T08:00:26.092Z,200
2018-05-10T08:01:36.116Z,200
2018-05-10T08:02:45.868Z,200
2018-05-10T08:03:55.612Z,200
2018-05-10T08:05:05.627Z,200
2018-05-10T08:06:15.380Z,200
2018-05-10T08:07:25.465Z,200
2018-05-10T08:08:35.481Z,200
2018-05-10T08:09:45.497Z,200
2018-05-10T08:10:54.981Z,200
2018-05-10T08:12:04.734Z,200
2018-05-10T08:13:13.946Z,200
2018-05-10T08:14:23.435Z,205
2018-05-10T08:15:33.452Z,205
2018-05-10T08:16:43.461Z,200
2018-05-10T08:17:52.684Z,200
2018-05-10T08:19:02.437Z,200
2018-05-10T08:20:11.381Z,200
2018-05-10T08:21:21.140Z,205
2018-05-10T08:22:31.153Z,205
2018-05-10T08:23:40.996Z,205
2018-05-10T08:24:50.209Z,205
2018-05-10T08:25:59.950Z,205
2018-05-10T08:27:09.965Z,205
2018-05-10T08:28:19.716Z,205
2018-05-10T08:29:29.743Z,210
2018-05-10T08:30:39.594Z,210
2018-05-10T08:31:49.340Z,210
2018-05-10T08:32:59.377Z,210
2018-05-10T08:34:09.130Z,210
2018-05-10T08:35:18.900Z,210
2018-05-10T08:36:28.858Z,215
2018-05-10T08:37:38.907Z,215
2018-05-10T08:38:48.390Z,220
2018-05-10T08:39:57.870Z,215
2018-05-10T08:41:07.628Z,215
2018-05-10T08:42:17.378Z,215
2018-05-10T08:43:26.869Z,220
2018-05-10T08:44:36.616Z,220
2018-05-10T08:45:45.829Z,220
2018-05-10T08:46:55.843Z,220
2018-05-10T08:48:05.592Z,220
2018-05-10T08:49:15.073Z,220
2018-05-10T08:50:24.291Z,225
2018-05-10T08:51:34.421Z,225
2018-05-10T08:52:44.269Z,225
2018-05-10T08:53:54.020Z,225
2018-05-10T08:55:04.048Z,230
2018-05-10T08:56:14.055Z,230
2018-05-10T08:57:23.813Z,235
2018-05-10T08:58:33.828Z,240
2018-05-10T08:59:43.312Z,240
2018-05-10T09:00:52.794Z,245
2018-05-10T09:02:02.279Z,255
2018-05-10T09:03:12.303Z,265
2018-05-10T09:04:21.783Z,270
2018-05-10T09:05:31.540Z,330
2018-05-10T09:06:41.295Z,345
2018-05-10T09:07:51.036Z,325
2018-05-10T09:09:01.052Z,300
2018-05-10T09:10:10.801Z,285
2018-05-10T09:11:20.817Z,275
2018-05-10T09:12:30.570Z,265
2018-05-10T09:13:40.330Z,255
2018-05-10T09:14:50.344Z,255
2018-05-10T09:16:00.100Z,255
2018-05-10T09:17:09.845Z,255
2018-05-10T09:18:19.864Z,220
2018-05-10T09:19:29.623Z,260
2018-05-10T09:20:39.645Z,260
2018-05-10T09:21:49.659Z,260
2018-05-10T09:22:59.407Z,265
2018-05-10T09:24:09.162Z,265
2018-05-10T09:25:18.921Z,265
2018-05-10T09:26:28.400Z,275
2018-05-10T09:27:38.251Z,275
2018-05-10T09:28:48.272Z,270
2018-05-10T09:29:58.284Z,275
2018-05-10T09:31:08.036Z,285
2018-05-10T09:32:17.782Z,275
2018-05-10T09:33:27.604Z,280
2018-05-10T09:34:37.624Z,265
2018-05-10T09:35:47.639Z,280
2018-05-10T09:36:57.659Z,290
2018-05-10T09:38:07.679Z,270
2018-05-10T09:39:18.057Z,285
2018-05-10T09:40:27.717Z,345
2018-05-10T09:41:37.730Z,395
2018-05-10T09:42:47.481Z,355
2018-05-10T09:43:57.503Z,375
2018-05-10T09:45:07.037Z,375
2018-05-10T09:46:16.445Z,380
2018-05-10T09:47:26.558Z,330
2018-05-10T09:48:36.600Z,345
2018-05-10T09:49:46.610Z,320
2018-05-10T09:50:56.779Z,360
2018-05-10T09:52:06.808Z,330
2018-05-10T09:53:16.846Z,365
2018-05-10T09:54:26.601Z,385
2018-05-10T09:55:36.356Z,430
2018-05-10T09:56:46.372Z,410
2018-05-10T09:57:56.404Z,325
2018-05-10T09:59:06.245Z,355
2018-05-10T10:00:15.997Z,320
2018-05-10T10:01:25.482Z,305
2018-05-10T10:02:35.018Z,305
2018-05-10T10:03:45.103Z,305
2018-05-10T10:04:54.852Z,300
2018-05-10T10:06:04.340Z,300
2018-05-10T10:07:14.092Z,305
2018-05-10T10:08:23.841Z,305
2018-05-10T10:09:33.607Z,310
2018-05-10T10:10:43.635Z,315
2018-05-10T10:11:53.385Z,315
2018-05-10T10:13:03.407Z,315
2018-05-10T10:14:13.159Z,315
2018-05-10T10:15:22.644Z,315
2018-05-10T10:16:32.655Z,320
2018-05-10T10:17:42.405Z,340
2018-05-10T10:18:52.435Z,360
2018-05-10T10:20:02.187Z,360
2018-05-10T10:21:11.942Z,340
2018-05-10T10:22:21.429Z,335
2018-05-10T10:23:31.467Z,345
2018-05-10T10:24:41.495Z,340
2018-05-10T10:25:51.518Z,345
2018-05-10T10:27:01.001Z,345
2018-05-10T10:28:11.029Z,345
2018-05-10T10:29:20.784Z,350
2018-05-10T10:30:30.544Z,350
2018-05-10T10:31:40.927Z,345
2018-05-10T10:32:50.421Z,350
2018-05-10T10:34:00.177Z,360
2018-05-10T10:35:10.201Z,370
2018-05-10T10:36:19.952Z,370
2018-05-10T10:37:29.973Z,370
2018-05-10T10:38:39.724Z,380
2018-05-10T10:39:49.474Z,390
2018-05-10T10:40:59.223Z,415
2018-05-10T10:42:09.252Z,430
2018-05-10T10:43:18.737Z,410
2018-05-10T10:44:28.525Z,405
2018-05-10T10:45:38.759Z,440
2018-05-10T10:46:48.779Z,455
2018-05-10T10:47:58.803Z,460
2018-05-10T10:49:08.549Z,430
2018-05-10T10:50:18.309Z,415
2018-05-10T10:51:28.337Z,410
2018-05-10T10:52:38.089Z,405
2018-05-10T10:53:48.022Z,405
2018-05-10T10:54:58.070Z,415
2018-05-10T10:56:08.088Z,435
2018-05-10T10:57:17.839Z,455
2018-05-10T10:58:27.603Z,465
2018-05-10T10:59:37.619Z,495
2018-05-10T11:00:47.387Z,525
2018-05-10T11:01:57.013Z,560
2018-05-10T11:03:06.767Z,540
2018-05-10T11:04:16.793Z,545
2018-05-10T11:05:26.544Z,530
2018-05-10T11:06:36.294Z,585
2018-05-10T11:07:46.313Z,645
2018-05-10T11:08:56.501Z,660
2018-05-10T11:10:06.253Z,640
2018-05-10T11:11:15.755Z,590
2018-05-10T11:12:25.239Z,535
2018-05-10T11:13:35.265Z,605
2018-05-10T11:14:45.023Z,525
2018-05-10T11:15:55.048Z,495
2018-05-10T11:17:04.808Z,605
2018-05-10T11:18:14.853Z,655
2018-05-10T11:19:24.338Z,640
2018-05-10T11:20:34.092Z,620
2018-05-10T11:21:43.856Z,630
2018-05-10T11:22:53.752Z,620
2018-05-10T11:24:03.240Z,640
2018-05-10T11:25:12.189Z,515
2018-05-10T11:26:21.949Z,515
2018-05-10T11:27:31.967Z,2735
2018-05-10T11:28:41.719Z,2985
2018-05-10T11:29:51.849Z,2925
2018-05-10T11:31:01.601Z,3075
2018-05-10T11:32:11.092Z,2920
2018-05-10T11:33:21.583Z,760
2018-05-10T11:34:31.378Z,555
2018-05-10T11:35:41.503Z,690
2018-05-10T11:36:51.535Z,1845
2018-05-10T11:38:01.558Z,2550
2018-05-10T11:39:11.637Z,600
2018-05-10T11:40:21.690Z,2865
2018-05-10T11:41:30.911Z,2890
2018-05-10T11:42:40.423Z,2790
2018-05-10T11:43:49.912Z,755
2018-05-10T11:44:59.942Z,2540
2018-05-10T11:46:09.425Z,2890
2018-05-10T11:47:19.189Z,2870
2018-05-10T11:48:28.956Z,2680
2018-05-10T11:49:38.712Z,2675
2018-05-10T11:50:48.478Z,2620
2018-05-10T11:51:58.248Z,2650
2018-05-10T11:53:08.269Z,2685
2018-05-10T11:54:18.032Z,2505
2018-05-10T11:55:27.529Z,2495
2018-05-10T11:56:37.553Z,2700
2018-05-10T11:57:47.317Z,1270
2018-05-10T11:58:56.816Z,2605
2018-05-10T12:00:06.318Z,2815
2018-05-10T12:01:16.351Z,620
2018-05-10T12:02:26.264Z,570
2018-05-10T12:03:36.321Z,660
2018-05-10T12:04:46.350Z,600
2018-05-10T12:05:56.114Z,580
2018-05-10T12:07:05.338Z,575
2018-05-10T12:08:15.362Z,945
2018-05-10T12:09:25.118Z,700
2018-05-10T12:10:34.986Z,2170
2018-05-10T12:11:45.010Z,760
2018-05-10T12:12:54.767Z,1185
2018-05-10T12:14:04.809Z,950
2018-05-10T12:15:14.566Z,695
2018-05-10T12:16:24.064Z,675
2018-05-10T12:17:33.825Z,645
2018-05-10T12:18:43.847Z,605
2018-05-10T12:19:53.880Z,695
2018-05-10T12:21:03.369Z,1240
2018-05-10T12:22:13.131Z,2075
2018-05-10T12:23:22.888Z,720
2018-05-10T12:24:32.378Z,710
2018-05-10T12:25:42.490Z,895
2018-05-10T12:26:52.253Z,785
2018-05-10T12:28:02.272Z,715
2018-05-10T12:29:11.493Z,650
2018-05-10T12:30:21.685Z,595
2018-05-10T12:31:31.185Z,625
2018-05-10T12:32:41.213Z,2315
2018-05-10T12:33:50.704Z,740
2018-05-10T12:35:00.739Z,735
2018-05-10T12:36:10.826Z,2775
2018-05-10T12:37:20.907Z,2600
2018-05-10T12:38:30.394Z,2585
2018-05-10T12:39:40.152Z,2655
2018-05-10T12:40:49.651Z,2455
2018-05-10T12:41:59.673Z,2450
2018-05-10T12:43:09.700Z,2385
2018-05-10T12:44:19.192Z,2325
2018-05-10T12:45:28.950Z,2165
2018-05-10T12:46:39.041Z,2235
2018-05-10T12:47:48.845Z,2295
2018-05-10T12:48:58.604Z,2120
2018-05-10T12:50:08.103Z,2270
2018-05-10T12:51:18.136Z,2350
2018-05-10T12:52:28.166Z,2270
2018-05-10T12:53:37.736Z,1340
2018-05-10T12:54:47.767Z,2655
2018-05-10T12:55:57.259Z,2835
2018-05-10T12:57:07.025Z,2990
2018-05-10T12:58:16.794Z,3495
2018-05-10T12:59:26.570Z,800
2018-05-10T13:00:36.061Z,690
2018-05-10T13:01:45.823Z,2140
2018-05-10T13:02:56.102Z,3620
2018-05-10T13:04:05.344Z,3375
2018-05-10T13:05:15.384Z,3000
2018-05-10T13:06:25.414Z,3110
2018-05-10T13:07:35.178Z,3865
2018-05-10T13:08:44.735Z,3715
2018-05-10T13:09:54.496Z,2895
2018-05-10T13:11:03.991Z,2200
2018-05-10T13:12:13.762Z,2135
2018-05-10T13:13:23.187Z,2705
2018-05-10T13:14:32.427Z,3040
2018-05-10T13:15:42.458Z,3300
2018-05-10T13:16:52.570Z,3710
2018-05-10T13:18:02.606Z,3515
2018-05-10T13:19:12.642Z,3350
2018-05-10T13:20:22.142Z,3720
2018-05-10T13:21:31.644Z,3465
2018-05-10T13:22:41.680Z,3115
2018-05-10T13:23:50.918Z,3210
2018-05-10T13:25:00.684Z,3440
2018-05-10T13:26:10.176Z,3510
2018-05-10T13:27:20.301Z,3395
2018-05-10T13:28:30.356Z,3450
2018-05-10T13:29:40.119Z,3290
2018-05-10T13:30:50.229Z,2955
2018-05-10T13:32:00.421Z,3285
2018-05-10T13:33:10.451Z,2495
2018-05-10T13:34:20.209Z,1290
2018-05-10T13:35:29.976Z,830
2018-05-10T13:36:39.476Z,915
2018-05-10T13:37:49.287Z,875
2018-05-10T13:38:59.049Z,960
2018-05-10T13:40:08.276Z,1275
2018-05-10T13:41:18.045Z,1155
2018-05-10T13:42:27.568Z,1520
2018-05-10T13:43:37.331Z,1510
2018-05-10T13:44:47.103Z,1580
2018-05-10T13:45:56.870Z,2045
2018-05-10T13:47:07.069Z,2365
2018-05-10T13:48:17.218Z,1445
2018-05-10T13:49:27.383Z,1145
2018-05-10T13:50:37.408Z,1710
2018-05-10T13:51:46.631Z,1985
2018-05-10T13:52:56.706Z,1735
2018-05-10T13:54:06.739Z,2515
2018-05-10T13:55:16.773Z,2435
2018-05-10T13:56:26.535Z,2490
2018-05-10T13:57:36.306Z,1980
2018-05-10T13:58:46.330Z,2045
2018-05-10T13:59:56.354Z,1980
2018-05-10T14:01:05.846Z,1710
2018-05-10T14:02:15.627Z,1800
2018-05-10T14:03:25.653Z,1560
2018-05-10T14:04:35.740Z,1420
2018-05-10T14:05:45.521Z,1515
2018-05-10T14:06:55.545Z,1500
2018-05-10T14:08:05.306Z,1655
2018-05-10T14:09:14.807Z,1635
2018-05-10T14:10:24.830Z,2170
2018-05-10T14:11:34.598Z,2815
2018-05-10T14:12:44.362Z,2710
2018-05-10T14:13:54.122Z,2865
2018-05-10T14:15:03.889Z,2860
2018-05-10T14:16:13.374Z,3185
2018-05-10T14:17:22.865Z,3245
2018-05-10T14:18:32.619Z,3035
2018-05-10T14:19:42.381Z,2420
2018-05-10T14:20:51.870Z,2145
2018-05-10T14:22:01.795Z,2180
2018-05-10T14:23:11.563Z,2745
2018-05-10T14:24:21.384Z,2765
2018-05-10T14:25:31.516Z,3115
2018-05-10T14:26:41.557Z,2575
2018-05-10T14:27:51.315Z,2390
2018-05-10T14:29:00.552Z,3035
2018-05-10T14:30:09.601Z,3155
2018-05-10T14:31:19.671Z,3220
2018-05-10T14:32:29.932Z,2415
2018-05-10T14:33:39.666Z,2875
2018-05-10T14:34:49.706Z,2825
2018-05-10T14:35:59.845Z,1975
2018-05-10T14:37:09.073Z,2765
2018-05-10T14:38:18.838Z,2745
2018-05-10T14:39:28.519Z,2985
2018-05-10T14:40:38.549Z,2950
2018-05-10T14:41:48.414Z,2250
2018-05-10T14:42:58.439Z,2835
2018-05-10T14:44:08.201Z,575
2018-05-10T14:45:17.698Z,2985
2018-05-10T14:46:27.190Z,610
2018-05-10T14:47:37.233Z,1790
2018-05-10T14:48:46.991Z,970
2018-05-10T14:49:57.033Z,2725
2018-05-10T14:51:06.526Z,2460
2018-05-10T14:52:16.553Z,3040
2018-05-10T14:53:26.047Z,3135
2018-05-10T14:54:35.539Z,2920
2018-05-10T14:55:45.570Z,3030
2018-05-10T14:56:55.596Z,3080
2018-05-10T14:58:05.361Z,2225
2018-05-10T14:59:15.389Z,1880
2018-05-10T15:00:25.148Z,1365
2018-05-10T15:01:35.183Z,2275
2018-05-10T15:02:45.212Z,2290
2018-05-10T15:03:54.973Z,2050
2018-05-10T15:05:04.746Z,1830
2018-05-10T15:06:14.554Z,1925
2018-05-10T15:07:24.059Z,1470
2018-05-10T15:08:33.547Z,1380
2018-05-10T15:09:42.775Z,910
2018-05-10T15:10:52.820Z,1235
2018-05-10T15:12:02.846Z,1155
2018-05-10T15:13:12.343Z,925
2018-05-10T15:14:21.565Z,795
2018-05-10T15:15:31.150Z,1125
2018-05-10T15:16:41.182Z,930
2018-05-10T15:17:51.211Z,2180
2018-05-10T15:19:00.972Z,2505
2018-05-10T15:20:11.009Z,1330
2018-05-10T15:21:21.040Z,725
2018-05-10T15:22:30.535Z,1660
2018-05-10T15:23:40.902Z,785
2018-05-10T15:24:50.675Z,760
2018-05-10T15:25:59.984Z,1255
2018-05-10T15:27:09.478Z,780
2018-05-10T15:28:18.968Z,620
2018-05-10T15:29:28.731Z,730
2018-05-10T15:30:38.764Z,1435
2018-05-10T15:31:49.035Z,535
2018-05-10T15:32:58.809Z,515
2018-05-10T15:34:08.848Z,515
2018-05-10T15:35:18.879Z,500
2018-05-10T15:36:28.903Z,545
2018-05-10T15:37:38.927Z,1435
2018-05-10T15:38:48.947Z,1465
2018-05-10T15:39:58.974Z,660
2018-05-10T15:41:08.734Z,1655
2018-05-10T15:42:17.963Z,1800
2018-05-10T15:43:27.450Z,1600
2018-05-10T15:44:37.204Z,865
2018-05-10T15:45:46.697Z,695
2018-05-10T15:46:56.456Z,605
2018-05-10T15:48:06.214Z,685
2018-05-10T15:49:15.978Z,645
2018-05-10T15:50:25.203Z,685
2018-05-10T15:51:35.234Z,570
2018-05-10T15:52:44.986Z,595
2018-05-10T15:53:55.014Z,580
2018-05-10T15:55:04.772Z,495
2018-05-10T15:56:14.804Z,475
2018-05-10T15:57:24.842Z,450
2018-05-10T15:58:34.623Z,445
2018-05-10T15:59:44.121Z,430
2018-05-10T16:00:54.142Z,420
2018-05-10T16:02:03.898Z,415
2018-05-10T16:03:13.919Z,415
2018-05-10T16:04:23.668Z,420
2018-05-10T16:05:33.422Z,425
2018-05-10T16:06:43.669Z,435
2018-05-10T16:07:53.788Z,445
2018-05-10T16:09:03.540Z,455
2018-05-10T16:10:13.579Z,480
2018-05-10T16:11:23.605Z,505